Time;durP1;ratioP1;P1;durP2;ratioP2;P2;SDS_P1;SDS_P2;PMS_P1;PMS_P2;Temp;Humidity;BMP_temperature;BMP_pressure;BME280_temperature;BME280_humidity;BME280_pressure;Samples;Min_cycle;Max_cycle;Signal;HPM_P1;HPM_P2
2023/04/06 00:01:35;;;;;;;7.05;5.82;;;1.80;99.90;;;;;;5091496;28;20036;-79
2023/04/06 00:04:01;;;;;;;7.47;6.10;;;1.80;99.90;;;;;;5089142;28;20063;-79
2023/04/06 00:06:27;;;;;;;8.10;5.88;;;1.80;99.90;;;;;;5072387;28;20044;-78
2023/04/06 00:08:53;;;;;;;6.47;5.55;;;1.80;99.90;;;;;;5090746;28;20355;-79
2023/04/06 00:11:18;;;;;;;9.38;6.43;;;1.80;99.90;;;;;;5090587;28;20547;-79
2023/04/06 00:13:44;;;;;;;8.57;6.10;;;1.80;99.90;;;;;;5090388;28;20040;-80
2023/04/06 00:16:10;;;;;;;7.32;5.78;;;1.80;99.90;;;;;;5072629;28;20048;-79
2023/04/06 00:18:36;;;;;;;6.82;6.13;;;1.70;99.90;;;;;;5090642;28;20058;-77
2023/04/06 00:21:02;;;;;;;8.23;5.90;;;1.70;99.90;;;;;;5090784;28;20105;-78
2023/04/06 00:23:27;;;;;;;7.28;5.75;;;1.60;99.90;;;;;;5071879;28;20049;-78
2023/04/06 00:25:53;;;;;;;8.18;6.32;;;1.60;99.90;;;;;;5090295;28;20048;-79
2023/04/06 00:28:24;;;;;;;10.50;6.25;;;1.60;99.90;;;;;;5071829;28;20490;-79
2023/04/06 00:30:52;;;;;;;8.93;6.35;;;1.50;99.90;;;;;;5089614;28;20113;-79
2023/04/06 00:33:18;;;;;;;6.60;5.93;;;1.50;99.90;;;;;;5088147;28;20756;-79
2023/04/06 00:35:44;;;;;;;6.68;5.68;;;1.40;99.90;;;;;;5084843;28;20040;-79
2023/04/06 00:38:09;;;;;;;8.65;6.43;;;1.40;99.90;;;;;;5070228;28;20133;-78
2023/04/06 00:40:35;;;;;;;8.20;5.70;;;1.40;99.90;;;;;;5081788;28;20055;-79
2023/04/06 00:43:01;;;;;;;7.05;5.82;;;1.40;99.90;;;;;;5088424;28;20051;-79
2023/04/06 00:45:27;;;;;;;6.88;5.95;;;1.40;99.90;;;;;;5087908;28;20073;-79
2023/04/06 00:47:52;;;;;;;7.00;5.85;;;1.40;99.90;;;;;;5091092;28;20397;-79
2023/04/06 00:50:18;;;;;;;8.75;6.35;;;1.40;99.90;;;;;;5090086;28;20067;-79
2023/04/06 00:52:44;;;;;;;9.85;6.07;;;1.40;99.90;;;;;;5070970;28;20047;-78
2023/04/06 00:55:10;;;;;;;7.57;6.35;;;1.30;99.90;;;;;;5090083;28;20055;-79
2023/04/06 00:57:36;;;;;;;6.82;5.88;;;1.30;99.90;;;;;;5089661;28;20075;-78
2023/04/06 01:00:03;;;;;;;8.23;6.30;;;1.30;99.90;;;;;;5071435;28;20434;-79
2023/04/06 01:02:29;;;;;;;7.50;6.38;;;1.20;99.90;;;;;;5089172;28;20039;-79
2023/04/06 01:04:55;;;;;;;7.55;6.03;;;1.20;99.90;;;;;;5086503;28;20051;-79
2023/04/06 01:07:20;;;;;;;9.38;6.38;;;1.10;99.90;;;;;;5071244;28;20047;-78
2023/04/06 01:09:46;;;;;;;7.90;5.53;;;1.10;99.90;;;;;;5089320;28;20072;-78
2023/04/06 01:12:11;;;;;;;8.50;6.13;;;1.00;99.90;;;;;;5087556;28;20102;-79
2023/04/06 01:14:37;;;;;;;8.57;6.18;;;1.00;99.90;;;;;;5090904;28;20048;-79
2023/04/06 01:17:03;;;;;;;6.82;6.13;;;1.00;99.90;;;;;;5088290;28;20044;-79
2023/04/06 01:19:28;;;;;;;8.00;6.47;;;1.00;99.90;;;;;;5089143;28;20147;-79
2023/04/06 01:21:54;;;;;;;7.80;6.40;;;1.00;99.90;;;;;;5089313;28;20043;-79
2023/04/06 01:24:21;;;;;;;6.90;6.03;;;0.90;99.90;;;;;;5071824;28;20056;-79
2023/04/06 01:26:46;;;;;;;7.40;6.43;;;0.90;99.90;;;;;;5089667;28;20101;-79
2023/04/06 01:29:12;;;;;;;7.43;6.57;;;0.90;99.90;;;;;;5087182;28;20032;-79
2023/04/06 01:31:38;;;;;;;6.57;5.88;;;0.90;99.90;;;;;;5070064;28;20072;-79
2023/04/06 01:34:04;;;;;;;6.57;5.63;;;0.80;99.90;;;;;;5088680;28;20051;-78
2023/04/06 01:36:30;;;;;;;8.30;6.50;;;0.80;99.90;;;;;;5087336;28;20040;-78
2023/04/06 01:38:56;;;;;;;7.05;6.00;;;0.80;99.90;;;;;;5089966;28;20054;-78
2023/04/06 01:41:22;;;;;;;7.80;5.93;;;0.80;99.90;;;;;;5078712;28;20090;-78
2023/04/06 01:43:48;;;;;;;7.20;6.15;;;0.80;99.90;;;;;;5061743;28;20063;-78
2023/04/06 01:46:13;;;;;;;8.98;6.43;;;0.70;99.90;;;;;;5088964;28;20048;-78
2023/04/06 01:48:39;;;;;;;7.30;6.60;;;0.70;99.90;;;;;;5087898;28;20044;-78
2023/04/06 01:51:05;;;;;;;7.32;5.95;;;0.70;99.90;;;;;;5088934;28;20040;-78
2023/04/06 01:53:30;;;;;;;8.25;5.95;;;0.60;99.90;;;;;;5067994;28;20376;-78
2023/04/06 01:55:56;;;;;;;8.00;6.22;;;0.50;99.90;;;;;;5088331;28;20128;-78
2023/04/06 01:58:21;;;;;;;6.90;6.05;;;0.50;99.90;;;;;;5085217;28;20109;-78
2023/04/06 02:00:47;;;;;;;7.50;6.32;;;0.50;99.90;;;;;;5089731;28;20051;-79
2023/04/06 02:03:14;;;;;;;11.38;6.82;;;0.50;99.90;;;;;;5086741;28;20051;-78
2023/04/06 02:05:40;;;;;;;7.97;6.47;;;0.50;99.90;;;;;;5069323;28;20101;-78
2023/04/06 02:08:06;;;;;;;8.98;6.43;;;0.50;99.90;;;;;;5088904;28;20064;-78
2023/04/06 02:10:32;;;;;;;9.73;6.25;;;0.50;99.90;;;;;;5070478;28;20036;-79
2023/04/06 02:12:58;;;;;;;7.35;6.65;;;0.50;99.90;;;;;;5089385;28;20486;-78
2023/04/06 02:15:24;;;;;;;6.93;6.22;;;0.50;99.90;;;;;;5087065;28;20051;-78
2023/04/06 02:17:49;;;;;;;8.05;6.78;;;0.50;99.90;;;;;;5077185;28;20049;-78
2023/04/06 02:20:15;;;;;;;9.73;6.47;;;0.50;99.90;;;;;;5053653;28;20048;-78
2023/04/06 02:22:41;;;;;;;7.47;6.13;;;0.50;99.90;;;;;;5067706;28;20048;-79
2023/04/06 02:25:07;;;;;;;8.00;6.65;;;0.40;99.90;;;;;;5087997;28;20055;-79
2023/04/06 02:27:33;;;;;;;8.02;6.57;;;0.40;99.90;;;;;;5068175;28;20040;-79
2023/04/06 02:29:58;;;;;;;8.35;6.70;;;0.40;99.90;;;;;;5069510;28;20059;-79
2023/04/06 02:32:24;;;;;;;8.27;6.97;;;0.40;99.90;;;;;;5052444;28;20087;-79
2023/04/06 02:34:50;;;;;;;9.45;7.00;;;0.30;99.90;;;;;;5080500;28;20524;-79
2023/04/06 02:37:15;;;;;;;6.97;6.28;;;0.30;99.90;;;;;;5042725;28;20048;-79
2023/04/06 02:39:41;;;;;;;7.90;7.10;;;0.30;99.90;;;;;;5087865;28;20098;-79
2023/04/06 02:42:08;;;;;;;11.15;7.25;;;0.30;99.90;;;;;;5087556;28;20048;-79
2023/04/06 02:44:40;;;;;;;8.70;6.60;;;0.30;99.90;;;;;;5088167;28;20124;-79
2023/04/06 02:47:05;;;;;;;9.27;6.63;;;0.30;99.90;;;;;;5087789;28;20036;-79
2023/04/06 02:49:31;;;;;;;8.45;7.15;;;0.30;99.90;;;;;;5087237;28;20097;-79
2023/04/06 02:51:56;;;;;;;8.63;7.18;;;0.30;99.90;;;;;;5086241;28;20052;-79
2023/04/06 02:54:22;;;;;;;7.43;6.68;;;0.20;99.90;;;;;;5069728;28;20526;-79
2023/04/06 02:56:47;;;;;;;8.93;6.63;;;0.20;99.90;;;;;;5086823;28;20405;-78
2023/04/06 02:59:13;;;;;;;9.55;6.93;;;0.20;99.90;;;;;;5069539;28;20135;-78
2023/04/06 03:01:38;;;;;;;8.30;6.88;;;0.20;99.90;;;;;;5067802;28;20115;-78
2023/04/06 03:04:04;;;;;;;7.65;6.53;;;0.20;99.90;;;;;;5087789;28;20056;-78
2023/04/06 03:06:30;;;;;;;11.38;7.78;;;0.20;99.90;;;;;;5068588;28;20135;-79
2023/04/06 03:08:55;;;;;;;9.00;7.40;;;0.30;99.90;;;;;;5085988;28;20043;-78
2023/04/06 03:11:21;;;;;;;10.20;8.20;;;0.20;99.90;;;;;;5086458;28;20102;-78
2023/04/06 03:13:46;;;;;;;7.13;6.40;;;0.20;99.90;;;;;;5087951;28;20509;-78
2023/04/06 03:16:12;;;;;;;10.57;7.38;;;0.20;99.90;;;;;;5085950;28;20040;-78
2023/04/06 03:18:38;;;;;;;8.75;6.95;;;0.20;99.90;;;;;;5077000;28;20123;-78
2023/04/06 03:21:06;;;;;;;10.18;7.07;;;0.20;99.90;;;;;;5063046;28;20113;-78
2023/04/06 03:23:32;;;;;;;7.53;6.70;;;0.20;99.90;;;;;;5086988;28;20402;-78
2023/04/06 03:25:57;;;;;;;8.23;6.85;;;0.20;99.90;;;;;;5087060;28;20044;-79
2023/04/06 03:28:23;;;;;;;8.65;7.03;;;0.10;99.90;;;;;;5065759;28;20046;-79
2023/04/06 03:30:49;;;;;;;8.57;7.35;;;0.10;99.90;;;;;;5084769;28;20051;-78
2023/04/06 03:33:16;;;;;;;9.40;7.20;;;0.10;99.90;;;;;;5069381;28;20417;-79
2023/04/06 03:35:41;;;;;;;9.13;7.43;;;0.10;99.90;;;;;;5087031;28;20039;-78
2023/04/06 03:38:07;;;;;;;8.23;6.90;;;0.10;99.90;;;;;;5066716;28;20051;-78
2023/04/06 03:40:32;;;;;;;8.95;6.72;;;0.10;99.90;;;;;;5087231;28;20394;-79
2023/04/06 03:42:58;;;;;;;9.32;7.40;;;0.10;99.90;;;;;;5069485;28;20040;-79
2023/04/06 03:45:24;;;;;;;8.75;7.47;;;0.10;99.90;;;;;;5067582;28;20087;-80
2023/04/06 03:47:49;;;;;;;9.10;7.25;;;0.10;99.90;;;;;;5069325;28;20126;-79
2023/04/06 03:50:15;;;;;;;10.25;7.70;;;0.10;99.90;;;;;;5087161;28;20047;-79
2023/04/06 03:52:42;;;;;;;10.75;7.20;;;0.00;99.90;;;;;;5068584;28;20121;-78
2023/04/06 03:55:08;;;;;;;10.90;6.82;;;0.30;99.90;;;;;;5070772;28;20052;-79
2023/04/06 03:57:33;;;;;;;11.18;7.90;;;0.00;99.90;;;;;;5084340;28;20415;-79
2023/04/06 03:59:59;;;;;;;9.65;7.22;;;0.00;99.90;;;;;;5086633;28;20169;-79
2023/04/06 04:02:25;;;;;;;12.07;8.02;;;0.00;99.90;;;;;;5082188;28;20106;-79
2023/04/06 04:04:50;;;;;;;10.85;7.93;;;0.00;99.90;;;;;;5065677;28;20040;-79
2023/04/06 04:07:16;;;;;;;9.30;7.50;;;-0.10;99.90;;;;;;5087001;28;20040;-79
2023/04/06 04:09:42;;;;;;;10.18;7.28;;;0.00;99.90;;;;;;5059327;28;20040;-79
2023/04/06 04:12:09;;;;;;;11.00;8.02;;;-0.10;99.90;;;;;;5063888;28;20036;-79
2023/04/06 04:14:35;;;;;;;9.70;7.18;;;-0.10;99.90;;;;;;5081008;28;20223;-79
2023/04/06 04:17:00;;;;;;;10.90;6.80;;;-0.10;99.90;;;;;;5063551;28;20164;-79
2023/04/06 04:19:26;;;;;;;13.85;7.53;;;-0.10;99.90;;;;;;5069227;28;20162;-79
2023/04/06 04:21:51;;;;;;;15.60;7.70;;;-0.10;99.90;;;;;;5086489;28;20048;-79
2023/04/06 04:24:17;;;;;;;10.95;7.93;;;-0.10;99.90;;;;;;5084795;28;20401;-79
2023/04/06 04:26:42;;;;;;;9.40;7.45;;;-0.10;99.90;;;;;;5085805;28;20093;-79
2023/04/06 04:29:08;;;;;;;9.43;7.93;;;-0.10;99.90;;;;;;5066412;28;20052;-80
2023/04/06 04:31:35;;;;;;;13.10;7.75;;;-0.10;99.90;;;;;;5086340;28;20482;-79
2023/04/06 04:34:01;;;;;;;10.50;7.60;;;-0.10;99.90;;;;;;5088023;28;20071;-80
2023/04/06 04:36:27;;;;;;;10.57;7.68;;;-0.10;99.90;;;;;;5086561;28;20055;-79
2023/04/06 04:38:52;;;;;;;9.38;7.68;;;-0.10;99.90;;;;;;5086679;28;20063;-80
2023/04/06 04:41:18;;;;;;;11.68;7.57;;;-0.20;99.90;;;;;;5087673;28;20052;-78
2023/04/06 04:43:44;;;;;;;11.23;8.13;;;-0.20;99.90;;;;;;5072471;28;20048;-78
2023/04/06 04:46:09;;;;;;;9.73;7.65;;;-0.20;99.90;;;;;;5055525;28;20044;-78
2023/04/06 04:48:35;;;;;;;13.18;8.73;;;-0.20;99.90;;;;;;5091253;28;20123;-79
2023/04/06 04:51:01;;;;;;;11.00;8.27;;;-0.20;99.90;;;;;;5072128;28;20136;-79
2023/04/06 04:53:26;;;;;;;12.38;8.10;;;-0.20;99.90;;;;;;5088996;28;20051;-78
2023/04/06 04:55:52;;;;;;;9.07;8.13;;;-0.20;99.90;;;;;;5089723;28;20043;-78
2023/04/06 04:58:19;;;;;;;10.63;8.52;;;-0.20;99.90;;;;;;5088637;28;20051;-79
2023/04/06 05:00:47;;;;;;;11.60;8.18;;;-0.20;99.90;;;;;;5089376;28;20044;-78
2023/04/06 05:03:19;;;;;;;11.52;8.93;;;-0.20;99.90;;;;;;5064718;28;20140;-79
2023/04/06 05:05:45;;;;;;;9.40;8.02;;;-0.20;99.90;;;;;;5051477;28;20044;-79
2023/04/06 05:08:11;;;;;;;14.48;8.98;;;-0.20;99.90;;;;;;5085884;28;20036;-80
2023/04/06 05:10:37;;;;;;;11.43;8.32;;;-0.20;99.90;;;;;;5076487;28;20127;-79
2023/04/06 05:13:02;;;;;;;12.45;8.63;;;-0.20;99.90;;;;;;5086529;28;20127;-79
2023/04/06 05:15:28;;;;;;;11.55;8.70;;;-0.20;99.90;;;;;;5089518;28;20434;-79
2023/04/06 05:17:53;;;;;;;12.85;8.38;;;-0.20;99.90;;;;;;5071536;28;20039;-79
2023/04/06 05:20:22;;;;;;;10.90;8.68;;;-0.10;99.90;;;;;;5088524;28;20181;-79
2023/04/06 05:22:47;;;;;;;11.93;9.23;;;0.40;99.90;;;;;;5089096;28;20133;-79
2023/04/06 05:25:14;;;;;;;11.90;8.82;;;-0.10;99.90;;;;;;5087920;28;20079;-79
2023/04/06 05:27:40;;;;;;;13.43;8.13;;;0.00;99.90;;;;;;5088672;28;20458;-79
2023/04/06 05:30:07;;;;;;;10.93;9.00;;;0.00;99.90;;;;;;5071478;28;20577;-79
2023/04/06 05:32:32;;;;;;;11.73;8.80;;;0.10;99.90;;;;;;5053584;28;20087;-78
2023/04/06 05:35:01;;;;;;;11.63;8.20;;;0.10;99.90;;;;;;5068170;28;20105;-78
2023/04/06 05:37:27;;;;;;;12.25;9.52;;;0.20;99.90;;;;;;5078222;28;20420;-78
2023/04/06 05:39:52;;;;;;;14.05;9.57;;;0.20;99.90;;;;;;5083075;28;20064;-79
2023/04/06 05:42:18;;;;;;;13.15;9.60;;;0.30;99.90;;;;;;5084622;28;20070;-79
2023/04/06 05:44:43;;;;;;;13.20;10.55;;;0.30;99.90;;;;;;5090466;28;20040;-79
2023/04/06 05:47:09;;;;;;;16.10;10.43;;;0.40;99.90;;;;;;5089617;28;20480;-79
2023/04/06 05:49:35;;;;;;;12.57;9.90;;;0.40;99.90;;;;;;5068660;28;20054;-80
2023/04/06 05:52:00;;;;;;;14.30;9.95;;;0.50;99.90;;;;;;5085959;28;20096;-78
2023/04/06 05:54:26;;;;;;;13.10;8.85;;;0.60;99.90;;;;;;5089103;28;20036;-79
2023/04/06 05:56:52;;;;;;;22.17;9.77;;;0.60;99.90;;;;;;5089444;28;20040;-77
2023/04/06 05:59:18;;;;;;;11.93;8.48;;;0.70;99.90;;;;;;5089219;28;20558;-79
2023/04/06 06:01:43;;;;;;;11.10;8.95;;;0.80;99.90;;;;;;5089737;28;21009;-79
2023/04/06 06:04:09;;;;;;;11.45;9.25;;;0.80;99.90;;;;;;5070227;28;20126;-79
2023/04/06 06:06:35;;;;;;;13.38;9.70;;;0.90;99.90;;;;;;5081372;28;20127;-79
2023/04/06 06:09:03;;;;;;;13.55;10.30;;;1.00;99.90;;;;;;5069104;28;20394;-79
2023/04/06 06:11:29;;;;;;;12.05;8.75;;;1.10;99.90;;;;;;5082977;28;20414;-79
2023/04/06 06:13:54;;;;;;;12.23;8.95;;;1.10;99.90;;;;;;5089421;28;20040;-79
2023/04/06 06:16:20;;;;;;;13.35;8.93;;;1.30;99.90;;;;;;5089662;28;20040;-79
2023/04/06 06:18:46;;;;;;;11.98;9.88;;;1.30;99.90;;;;;;5087213;28;20059;-79
2023/04/06 06:21:16;;;;;;;13.10;9.50;;;1.50;99.90;;;;;;5068362;28;20117;-78
2023/04/06 06:23:44;;;;;;;13.13;9.20;;;1.60;99.90;;;;;;5074130;28;20138;-78
2023/04/06 06:26:10;;;;;;;11.15;9.10;;;1.70;99.90;;;;;;5070705;28;20051;-78
2023/04/06 06:28:36;;;;;;;13.05;9.40;;;1.80;99.90;;;;;;5089669;28;20047;-78
2023/04/06 06:31:02;;;;;;;12.02;9.27;;;1.90;99.90;;;;;;5089185;28;20036;-77
2023/04/06 06:33:27;;;;;;;13.25;9.50;;;2.10;99.90;;;;;;5088624;28;20096;-78
2023/04/06 06:35:53;;;;;;;10.70;9.07;;;2.10;99.90;;;;;;5088136;28;20047;-78
2023/04/06 06:38:18;;;;;;;12.88;9.30;;;2.30;99.90;;;;;;5085526;28;20164;-77
2023/04/06 06:40:47;;;;;;;13.00;9.40;;;2.40;99.90;;;;;;5070827;28;20044;-78
2023/04/06 06:43:12;;;;;;;10.93;8.95;;;2.50;99.90;;;;;;5070768;28;20497;-79
2023/04/06 06:45:38;;;;;;;13.13;9.57;;;2.60;99.90;;;;;;5086462;28;20044;-78
2023/04/06 06:48:03;;;;;;;13.63;9.13;;;2.70;99.90;;;;;;5088816;28;20454;-77
2023/04/06 06:50:29;;;;;;;11.32;9.18;;;2.80;99.90;;;;;;5088806;28;20126;-78
2023/04/06 06:52:55;;;;;;;11.77;9.13;;;2.90;99.90;;;;;;5088283;28;20040;-78
2023/04/06 06:55:20;;;;;;;13.63;9.07;;;3.00;99.90;;;;;;5089063;28;20490;-77
2023/04/06 06:57:46;;;;;;;12.02;8.88;;;3.10;99.90;;;;;;5086072;28;20093;-77
2023/04/06 07:00:13;;;;;;;11.00;8.57;;;3.30;99.90;;;;;;5086276;28;20053;-78
2023/04/06 07:02:39;;;;;;;13.18;8.98;;;3.40;99.90;;;;;;5086961;28;20032;-77
2023/04/06 07:05:05;;;;;;;12.63;8.73;;;3.50;99.90;;;;;;5070287;28;20494;-76
2023/04/06 07:07:34;;;;;;;13.35;9.57;;;3.60;99.90;;;;;;5088530;28;20087;-77
2023/04/06 07:10:00;;;;;;;11.85;8.98;;;3.80;99.90;;;;;;5088844;28;20107;-78
2023/04/06 07:12:26;;;;;;;10.80;9.63;;;3.90;99.90;;;;;;5087320;28;20378;-77
2023/04/06 07:14:52;;;;;;;9.35;8.30;;;4.10;99.90;;;;;;5068779;28;20140;-78
2023/04/06 07:17:17;;;;;;;12.73;9.10;;;4.20;99.90;;;;;;5087239;28;20040;-77
2023/04/06 07:19:43;;;;;;;14.35;9.55;;;4.40;99.90;;;;;;5089300;28;20040;-77
2023/04/06 07:22:09;;;;;;;11.88;9.07;;;4.50;99.90;;;;;;5087666;28;20375;-76
2023/04/06 07:24:34;;;;;;;13.18;9.40;;;4.60;99.90;;;;;;5087808;28;20108;-77
2023/04/06 07:27:00;;;;;;;11.70;9.43;;;4.80;99.90;;;;;;5053775;28;20585;-77
2023/04/06 07:29:27;;;;;;;11.85;9.88;;;5.00;99.90;;;;;;5088149;28;20036;-76
2023/04/06 07:31:52;;;;;;;10.02;8.45;;;5.10;99.90;;;;;;5087943;28;20055;-76
2023/04/06 07:34:18;;;;;;;13.27;9.90;;;5.20;99.90;;;;;;5087349;28;20040;-77
2023/04/06 07:36:44;;;;;;;12.98;9.95;;;5.30;99.90;;;;;;5069266;28;20040;-77
2023/04/06 07:39:10;;;;;;;15.45;9.68;;;5.50;99.90;;;;;;5085831;28;20105;-77
2023/04/06 07:41:36;;;;;;;13.82;8.55;;;5.60;99.90;;;;;;5086614;28;20380;-77
2023/04/06 07:44:02;;;;;;;12.98;10.07;;;5.80;99.90;;;;;;5069300;28;20452;-78
2023/04/06 07:46:27;;;;;;;12.73;9.73;;;6.00;99.90;;;;;;5070061;28;20040;-78
2023/04/06 07:48:53;;;;;;;12.32;9.52;;;6.10;99.90;;;;;;5088039;28;20455;-78
2023/04/06 07:51:19;;;;;;;14.75;10.23;;;6.20;99.90;;;;;;5070263;28;20055;-77
2023/04/06 07:53:45;;;;;;;13.25;10.65;;;6.40;99.90;;;;;;5088378;28;20048;-78
2023/04/06 07:56:15;;;;;;;11.50;9.63;;;6.50;99.90;;;;;;5088690;28;20044;-77
2023/04/06 07:58:40;;;;;;;15.30;11.25;;;6.60;99.90;;;;;;5087131;28;20105;-78
2023/04/06 08:01:06;;;;;;;12.05;10.13;;;6.80;99.90;;;;;;5088686;28;20532;-79
2023/04/06 08:03:34;;;;;;;13.05;10.38;;;6.90;99.90;;;;;;5086539;28;20044;-78
2023/04/06 08:06:00;;;;;;;13.93;10.60;;;7.00;99.90;;;;;;5088719;28;20036;-78
2023/04/06 08:08:25;;;;;;;13.98;10.90;;;7.10;99.90;;;;;;5087081;28;20044;-78
2023/04/06 08:10:51;;;;;;;13.10;10.65;;;7.20;99.90;;;;;;5071195;28;20410;-78
2023/04/06 08:13:16;;;;;;;15.02;11.00;;;7.40;99.90;;;;;;5086146;28;20088;-80
2023/04/06 08:15:42;;;;;;;14.57;10.98;;;7.60;99.90;;;;;;5085710;28;20074;-80
2023/04/06 08:18:08;;;;;;;15.82;11.20;;;7.70;99.80;;;;;;5066551;28;20136;-80
2023/04/06 08:20:34;;;;;;;15.38;11.30;;;7.90;99.30;;;;;;5089516;28;20044;-79
2023/04/06 08:23:00;;;;;;;12.15;10.13;;;8.00;99.30;;;;;;5086109;28;20040;-80
2023/04/06 08:25:26;;;;;;;13.48;10.63;;;8.10;98.70;;;;;;5091521;28;20092;-80
2023/04/06 08:27:51;;;;;;;12.25;10.35;;;8.20;97.10;;;;;;5071149;28;20040;-80
2023/04/06 08:30:18;;;;;;;15.98;10.82;;;8.30;96.30;;;;;;5083669;28;20128;-80
2023/04/06 08:32:47;;;;;;;13.05;10.60;;;8.70;96.30;;;;;;5091197;28;20118;-82
2023/04/06 08:35:13;;;;;;;13.50;10.93;;;8.60;96.60;;;;;;5073082;28;20062;-82
2023/04/06 08:37:39;;;;;;;12.65;10.70;;;8.80;96.60;;;;;;5070563;28;20070;-82
2023/04/06 08:40:05;;;;;;;13.30;10.80;;;9.00;96.30;;;;;;5073358;28;20063;-82
2023/04/06 08:42:40;;;;;;;13.93;10.90;;;9.10;95.30;;;;;;5073131;28;20072;-82
2023/04/06 08:45:06;;;;;;;13.95;10.77;;;9.20;94.30;;;;;;5056686;28;20055;-81
2023/04/06 08:47:33;;;;;;;12.88;10.27;;;9.40;95.30;;;;;;5090245;28;20044;-82
2023/04/06 08:50:03;;;;;;;15.07;10.43;;;9.60;95.30;;;;;;5060776;28;20044;-81
2023/04/06 08:52:31;;;;;;;13.30;10.52;;;9.80;93.90;;;;;;5071453;28;20212;-81
2023/04/06 08:54:57;;;;;;;12.43;10.25;;;10.00;94.00;;;;;;5055796;28;20055;-82
2023/04/06 08:57:23;;;;;;;13.40;10.82;;;10.20;94.20;;;;;;5091791;28;20052;-82
2023/04/06 08:59:50;;;;;;;13.27;10.00;;;10.40;92.50;;;;;;5056271;28;20047;-81
2023/04/06 09:02:18;;;;;;;12.65;10.63;;;10.60;92.40;;;;;;5071477;28;20125;-82
2023/04/06 09:04:47;;;;;;;16.38;10.80;;;10.70;91.40;;;;;;5065517;28;20139;-82
2023/04/06 09:07:14;;;;;;;14.75;11.07;;;10.70;88.70;;;;;;5070323;28;20052;-82
2023/04/06 09:09:47;;;;;;;12.98;10.77;;;10.60;90.60;;;;;;5064637;28;20389;-82
2023/04/06 09:12:23;;;;;;;14.32;10.70;;;10.60;90.90;;;;;;5089134;28;20044;-81
2023/04/06 09:14:48;;;;;;;13.70;11.45;;;10.60;89.90;;;;;;5081800;28;20041;-82
2023/04/06 09:17:24;;;;;;;14.10;10.68;;;10.60;90.60;;;;;;5052556;28;20479;-82
2023/04/06 09:19:50;;;;;;;13.60;10.75;;;10.70;89.30;;;;;;5068875;28;20112;-81
2023/04/06 09:22:16;;;;;;;13.30;10.75;;;10.80;90.50;;;;;;5085782;28;20036;-81
2023/04/06 09:24:49;;;;;;;14.02;11.07;;;10.90;90.30;;;;;;5084924;28;20051;-82
2023/04/06 09:27:15;;;;;;;;;;;10.90;89.20;;;;;;5069036;28;20044;-81
2023/04/06 09:29:42;;;;;;;14.32;11.02;;;11.00;85.30;;;;;;5073129;28;19920;-82
2023/04/06 09:32:10;;;;;;;14.77;11.40;;;11.10;89.60;;;;;;5071764;28;20051;-82
2023/04/06 09:34:48;;;;;;;16.40;11.05;;;11.10;88.50;;;;;;5055281;28;20036;-81
2023/04/06 09:37:18;;;;;;;13.65;10.98;;;11.10;87.80;;;;;;5072553;28;20064;-81
2023/04/06 09:39:45;;;;;;;16.38;12.20;;;11.20;86.80;;;;;;5088323;28;20044;-81
2023/04/06 09:42:22;;;;;;;14.75;11.88;;;11.20;86.10;;;;;;5061107;28;20076;-81
2023/04/06 09:44:48;;;;;;;14.93;12.02;;;11.20;85.30;;;;;;5090334;28;20048;-79
2023/04/06 09:47:15;;;;;;;14.50;11.52;;;11.30;86.50;;;;;;5073200;28;20548;-81
2023/04/06 09:49:42;;;;;;;15.23;11.90;;;12.00;85.90;;;;;;5091204;28;20047;-81
2023/04/06 09:52:11;;;;;;;15.52;12.45;;;11.40;84.10;;;;;;5089768;28;20039;-81
2023/04/06 09:54:38;;;;;;;16.95;11.93;;;11.50;83.60;;;;;;5071230;28;20517;-81
2023/04/06 09:57:13;;;;;;;18.48;11.95;;;11.60;83.50;;;;;;5091163;28;20054;-80
2023/04/06 10:00:02;;;;;;;17.13;12.10;;;11.60;81.90;;;;;;5089682;28;20475;-82
2023/04/06 10:02:53;;;;;;;18.73;12.48;;;11.60;78.50;;;;;;5090845;28;20050;-81
2023/04/06 10:05:59;;;;;;;14.77;11.73;;;11.60;77.00;;;;;;5072883;28;20056;-81
2023/04/06 10:08:29;;;;;;;17.15;13.45;;;11.60;78.10;;;;;;5038503;28;20068;-81
2023/04/06 10:10:56;;;;;;;17.05;12.90;;;12.30;80.70;;;;;;5072014;28;20059;-81
2023/04/06 10:13:24;;;;;;;16.23;12.20;;;11.70;80.40;;;;;;5070218;28;20052;-82
2023/04/06 10:15:51;;;;;;;19.42;12.88;;;11.80;79.60;;;;;;5088210;28;20042;-80
2023/04/06 10:18:20;;;;;;;15.73;12.60;;;11.90;78.70;;;;;;5086110;28;20032;-81
2023/04/06 10:21:18;;;;;;;16.83;12.70;;;12.10;79.40;;;;;;5088374;28;20042;-81
2023/04/06 10:24:10;;;;;;;19.73;13.38;;;12.30;75.20;;;;;;5043363;28;20051;-81
2023/04/06 10:26:36;;;;;;;18.42;13.88;;;12.40;74.00;;;;;;5067593;28;20079;-81
2023/04/06 10:29:06;;;;;;;20.65;14.05;;;12.60;75.30;;;;;;5071982;28;20094;-81
2023/04/06 10:31:32;;;;;;;20.35;14.73;;;12.70;73.90;;;;;;5069998;28;20438;-82
2023/04/06 10:34:03;;;;;;;18.52;13.50;;;12.80;72.80;;;;;;5073304;28;20045;-83
2023/04/06 10:36:33;;;;;;;20.48;13.55;;;13.20;72.80;;;;;;5053515;28;20156;-82
2023/04/06 10:39:02;;;;;;;27.70;15.18;;;13.20;70.10;;;;;;5077873;28;20051;-82
2023/04/06 10:41:45;;;;;;;28.65;14.85;;;13.30;68.90;;;;;;5088717;28;20069;-82
2023/04/06 10:44:22;;;;;;;18.48;13.90;;;13.40;69.20;;;;;;5088406;28;20051;-81
2023/04/06 10:46:55;;;;;;;17.80;14.75;;;13.50;68.90;;;;;;5089260;28;20469;-81
2023/04/06 10:49:21;;;;;;;20.00;15.45;;;13.60;67.20;;;;;;5086840;28;20039;-81
2023/04/06 10:51:53;;;;;;;22.80;17.10;;;13.60;68.30;;;;;;5069556;28;20109;-81
2023/04/06 10:54:20;;;;;;;23.27;17.37;;;13.50;65.00;;;;;;5087893;28;20138;-80
2023/04/06 10:56:46;;;;;;;24.65;16.75;;;13.30;64.50;;;;;;5069492;28;20059;-81
2023/04/06 10:59:20;;;;;;;24.65;16.90;;;13.20;65.10;;;;;;5070103;28;20051;-81
2023/04/06 11:01:46;;;;;;;25.40;18.45;;;13.20;63.70;;;;;;5088187;28;20043;-81
2023/04/06 11:04:16;;;;;;;25.73;18.23;;;13.00;64.50;;;;;;5071646;28;20378;-81
2023/04/06 11:06:47;;;;;;;26.58;18.92;;;13.10;64.20;;;;;;5087541;28;20040;-81
2023/04/06 11:09:26;;;;;;;25.00;18.80;;;13.10;63.60;;;;;;5070273;28;20468;-82
2023/04/06 11:11:52;;;;;;;24.70;18.60;;;13.20;63.60;;;;;;5071187;28;20127;-82
2023/04/06 11:14:18;;;;;;;26.45;19.35;;;13.10;63.60;;;;;;5087336;28;20047;-81
2023/04/06 11:16:47;;;;;;;25.80;19.05;;;13.30;63.90;;;;;;5069239;28;20040;-81
2023/04/06 11:19:12;;;;;;;24.33;19.10;;;13.10;63.60;;;;;;5088210;28;20101;-81
2023/04/06 11:21:41;;;;;;;23.88;18.30;;;13.00;63.60;;;;;;5069687;28;20502;-81
2023/04/06 11:24:15;;;;;;;24.10;18.60;;;13.00;63.00;;;;;;5086731;28;20040;-82
2023/04/06 11:26:44;;;;;;;24.80;18.27;;;13.10;62.70;;;;;;5070016;28;20051;-81
2023/04/06 11:29:11;;;;;;;25.38;19.15;;;13.00;62.60;;;;;;5070657;28;20048;-81
2023/04/06 11:31:41;;;;;;;25.15;19.10;;;13.00;62.50;;;;;;5053460;28;20135;-81
2023/04/06 11:34:11;;;;;;;24.00;19.17;;;13.00;62.80;;;;;;5069939;28;20139;-81
2023/04/06 11:36:41;;;;;;;24.92;18.98;;;13.10;63.10;;;;;;5088737;28;20048;-80
2023/04/06 11:39:08;;;;;;;26.52;18.90;;;13.10;62.10;;;;;;5068497;28;20482;-80
2023/04/06 11:41:36;;;;;;;25.38;19.30;;;13.10;62.10;;;;;;5088330;28;20305;-80
2023/04/06 11:44:02;;;;;;;26.70;19.05;;;13.20;61.70;;;;;;5069608;28;20048;-80
2023/04/06 11:46:28;;;;;;;24.48;18.42;;;13.10;61.20;;;;;;5052552;28;20378;-80
2023/04/06 11:48:59;;;;;;;27.58;19.23;;;13.10;61.50;;;;;;5068924;28;20116;-80
2023/04/06 11:51:26;;;;;;;23.63;17.67;;;13.20;60.30;;;;;;5087134;28;20447;-81
2023/04/06 11:53:52;;;;;;;24.65;18.55;;;13.30;60.80;;;;;;5087810;28;20095;-81
2023/04/06 11:56:29;;;;;;;25.27;18.27;;;13.30;60.30;;;;;;5069246;28;20490;-81
2023/04/06 11:58:56;;;;;;;23.55;17.00;;;13.40;59.20;;;;;;5069895;28;20103;-81
2023/04/06 12:01:23;;;;;;;22.05;16.67;;;13.60;59.30;;;;;;5088042;28;20063;-81
2023/04/06 12:03:49;;;;;;;21.85;16.60;;;13.40;59.50;;;;;;5069285;28;20106;-81
2023/04/06 12:06:15;;;;;;;22.60;18.33;;;13.40;59.80;;;;;;5069236;28;20051;-80
2023/04/06 12:08:41;;;;;;;23.30;17.95;;;13.60;60.00;;;;;;5069702;28;20052;-82
2023/04/06 12:11:06;;;;;;;22.15;17.63;;;13.60;60.00;;;;;;5069340;28;20410;-81
2023/04/06 12:13:32;;;;;;;24.42;17.88;;;13.60;59.50;;;;;;5051625;28;20137;-81
2023/04/06 12:15:58;;;;;;;26.17;17.45;;;13.70;59.30;;;;;;5068080;28;20355;-81
2023/04/06 12:18:23;;;;;;;20.65;16.48;;;13.70;59.40;;;;;;5068720;28;20152;-82
2023/04/06 12:20:51;;;;;;;24.35;17.25;;;13.80;59.20;;;;;;5086165;28;20048;-82
2023/04/06 12:23:18;;;;;;;21.63;17.13;;;14.00;59.20;;;;;;5086132;28;20104;-82
2023/04/06 12:25:44;;;;;;;23.95;17.92;;;14.10;58.80;;;;;;5068383;28;20452;-82
2023/04/06 12:28:10;;;;;;;21.38;16.98;;;14.10;58.90;;;;;;5068130;28;20051;-81
2023/04/06 12:30:35;;;;;;;22.85;17.10;;;14.20;58.70;;;;;;5069067;28;20067;-81
2023/04/06 12:33:07;;;;;;;21.92;17.05;;;14.20;58.30;;;;;;5069440;28;20502;-81
2023/04/06 12:35:36;;;;;;;22.50;17.58;;;14.30;58.30;;;;;;5087274;28;20118;-81
2023/04/06 12:38:02;;;;;;;23.00;17.10;;;14.30;58.00;;;;;;5086612;28;20064;-82
2023/04/06 12:40:28;;;;;;;22.83;16.30;;;14.50;57.80;;;;;;5068531;28;20070;-81
2023/04/06 12:42:53;;;;;;;20.63;16.75;;;14.60;57.70;;;;;;5070448;28;20047;-81